createdAt,value
2022-11-15T00:00:24.247Z,85.05
2022-11-15T00:05:49.223Z,84.80
2022-11-15T00:11:15.803Z,85.00
2022-11-15T00:16:40.482Z,85.00
2022-11-15T00:22:05.042Z,85.18
2022-11-15T00:27:31.330Z,85.13
2022-11-15T00:32:56.185Z,85.15
2022-11-15T00:38:20.815Z,85.30
2022-11-15T00:43:47.339Z,85.31
2022-11-15T00:49:12.590Z,85.85
2022-11-15T00:54:37.217Z,85.62
2022-11-15T01:00:03.256Z,85.71
2022-11-15T01:05:28.150Z,85.66
2022-11-15T01:10:52.582Z,85.55
2022-11-15T01:16:20.772Z,86.21
2022-11-15T01:21:45.691Z,85.57
2022-11-15T01:27:11.293Z,85.57
2022-11-15T01:32:37.380Z,86.20
2022-11-15T01:38:02.119Z,85.96
2022-11-15T01:43:30.004Z,85.99
2022-11-15T01:49:00.080Z,86.19
2022-11-15T01:54:26.440Z,86.24
2022-11-15T01:59:51.603Z,86.24
2022-11-15T02:05:18.031Z,86.07
2022-11-15T02:10:42.866Z,86.21
2022-11-15T02:16:24.726Z,86.50
2022-11-15T02:22:06.778Z,85.96
2022-11-15T02:28:13.301Z,86.39
2022-11-15T02:33:52.224Z,86.63
2022-11-15T02:39:25.914Z,86.28
2022-11-15T02:44:52.055Z,86.57
2022-11-15T02:50:23.404Z,86.29
2022-11-15T02:55:53.057Z,86.26
2022-11-15T03:01:34.922Z,86.31
2022-11-15T03:07:10.831Z,86.60
2022-11-15T03:12:42.243Z,86.32
2022-11-15T03:18:15.219Z,86.41
2022-11-15T03:23:42.684Z,86.31
2022-11-15T03:29:12.277Z,86.51
2022-11-15T03:34:44.405Z,86.37
2022-11-15T03:40:13.136Z,86.07
2022-11-15T03:45:44.111Z,86.30
2022-11-15T03:51:09.220Z,86.44
2022-11-15T03:56:35.513Z,86.04
2022-11-15T04:02:00.411Z,86.48
2022-11-15T04:07:25.153Z,86.34
2022-11-15T04:12:51.872Z,86.27
2022-11-15T04:18:16.646Z,86.16
2022-11-15T04:23:58.614Z,86.22
2022-11-15T04:29:37.198Z,86.09
2022-11-15T04:35:02.125Z,85.83
2022-11-15T04:40:28.663Z,86.24
2022-11-15T04:45:55.367Z,86.20
2022-11-15T04:51:21.929Z,86.18
2022-11-15T04:56:46.639Z,86.53
2022-11-15T05:02:13.084Z,86.16
2022-11-15T05:07:37.847Z,85.85
2022-11-15T05:13:02.737Z,86.06
2022-11-15T05:18:28.788Z,86.09
2022-11-15T05:23:53.546Z,86.32
2022-11-15T05:29:18.190Z,85.91
2022-11-15T05:34:44.191Z,86.26
2022-11-15T05:40:11.042Z,86.03
2022-11-15T05:45:37.085Z,86.20
2022-11-15T05:51:04.305Z,86.08
2022-11-15T05:56:29.511Z,86.46
2022-11-15T06:01:54.220Z,86.25
2022-11-15T06:07:21.174Z,86.02
2022-11-15T06:12:46.440Z,86.40
2022-11-15T06:18:11.449Z,86.36
2022-11-15T06:23:38.495Z,86.27
2022-11-15T06:29:04.883Z,86.08
2022-11-15T06:34:29.894Z,86.49
2022-11-15T06:39:55.853Z,86.71
2022-11-15T06:45:20.501Z,86.51
2022-11-15T06:50:45.304Z,87.04
2022-11-15T06:56:11.871Z,87.27
2022-11-15T07:01:36.697Z,86.58
2022-11-15T07:07:01.771Z,87.16
2022-11-15T07:12:28.161Z,86.60
2022-11-15T07:17:52.995Z,86.56
2022-11-15T07:23:17.661Z,87.41
2022-11-15T07:28:44.262Z,87.05
2022-11-15T07:34:09.799Z,87.13
2022-11-15T07:39:34.359Z,87.10
2022-11-15T07:45:00.418Z,86.89
2022-11-15T07:50:25.659Z,87.16
2022-11-15T07:55:50.381Z,86.93
2022-11-15T08:01:16.344Z,87.03
2022-11-15T08:06:41.549Z,86.83
2022-11-15T08:12:07.307Z,87.16
2022-11-15T08:17:35.248Z,87.04
2022-11-15T08:23:00.656Z,87.36
2022-11-15T08:28:25.389Z,86.89
2022-11-15T08:33:51.678Z,86.72
2022-11-15T08:39:16.887Z,86.78
2022-11-15T08:44:41.750Z,86.56
2022-11-15T08:50:09.515Z,86.73
2022-11-15T08:55:34.457Z,86.63
2022-11-15T09:00:59.181Z,86.12
2022-11-15T09:06:25.279Z,86.59
2022-11-15T09:11:50.308Z,86.88
2022-11-15T09:17:15.385Z,86.75
2022-11-15T09:22:43.688Z,86.35
2022-11-15T09:28:10.465Z,86.58
2022-11-15T09:33:35.597Z,86.40
2022-11-15T09:39:02.720Z,87.04
2022-11-15T09:44:52.448Z,86.84
2022-11-15T09:50:22.241Z,86.65
2022-11-15T09:55:43.603Z,86.51
2022-11-15T10:00:54.174Z,86.89
2022-11-15T10:06:04.568Z,86.58
2022-11-15T10:17:24.334Z,86.54
2022-11-15T10:22:37.799Z,86.71
2022-11-15T10:27:48.207Z,86.56
2022-11-15T10:32:54.505Z,86.06
2022-11-15T10:38:09.925Z,86.26
2022-11-15T10:43:22.147Z,86.37
2022-11-15T10:48:29.115Z,86.62
2022-11-15T10:53:42.071Z,86.75
2022-11-15T10:58:56.955Z,86.32
2022-11-15T11:04:06.028Z,86.67
2022-11-15T11:09:23.115Z,86.18
2022-11-15T11:14:34.413Z,86.57
2022-11-15T11:20:04.877Z,86.69
2022-11-15T11:25:30.812Z,86.85
2022-11-15T11:30:53.039Z,87.00
2022-11-15T11:36:14.702Z,86.76
2022-11-15T11:41:41.781Z,86.72
2022-11-15T11:47:02.241Z,86.41
2022-11-15T11:52:16.240Z,86.18
2022-11-15T11:57:42.008Z,86.35
2022-11-15T12:03:03.646Z,86.23
2022-11-15T12:08:28.582Z,86.24
2022-11-15T12:13:37.988Z,86.25
2022-11-15T12:18:51.646Z,86.83
2022-11-15T12:24:05.714Z,87.19
2022-11-15T12:29:22.239Z,86.53
2022-11-15T12:34:48.340Z,87.34
2022-11-15T12:40:39.195Z,86.94
2022-11-15T12:45:47.533Z,87.01
2022-11-15T12:51:00.163Z,87.37
2022-11-15T12:56:26.246Z,87.11
2022-11-15T13:02:02.722Z,86.89
2022-11-15T13:07:30.827Z,87.02
2022-11-15T13:13:01.590Z,86.98
2022-11-15T13:18:39.178Z,86.98
2022-11-15T13:23:53.826Z,87.59
2022-11-15T13:29:00.763Z,87.45
2022-11-15T13:34:50.526Z,88.27
2022-11-15T13:39:56.284Z,88.16
2022-11-15T13:45:05.370Z,88.18
2022-11-15T13:50:15.183Z,88.40
2022-11-15T13:55:26.231Z,88.57
2022-11-15T14:00:41.448Z,88.56
2022-11-15T14:06:05.100Z,88.95
2022-11-15T14:11:23.204Z,88.89
2022-11-15T14:16:38.262Z,88.36
2022-11-15T14:22:17.638Z,88.71
2022-11-15T14:27:28.606Z,88.96
2022-11-15T14:32:47.101Z,89.24
2022-11-15T14:37:53.773Z,89.30
2022-11-15T14:43:01.700Z,89.48
2022-11-15T14:48:08.405Z,89.37
2022-11-15T14:53:17.541Z,89.04
2022-11-15T14:58:25.167Z,89.12
2022-11-15T15:03:31.444Z,89.47
2022-11-15T15:08:38.416Z,89.35
2022-11-15T15:13:46.247Z,89.27
2022-11-15T15:18:52.839Z,89.63
2022-11-15T15:23:59.220Z,89.65
2022-11-15T15:29:10.149Z,89.61
2022-11-15T15:34:17.059Z,89.81
2022-11-15T15:39:23.695Z,89.70
2022-11-15T15:44:31.389Z,89.29
2022-11-15T15:49:37.618Z,89.53
2022-11-15T15:54:44.828Z,89.40
2022-11-15T15:59:52.568Z,89.33
2022-11-15T16:05:00.564Z,89.66
2022-11-15T16:10:23.994Z,89.90
2022-11-15T16:15:34.363Z,89.95
2022-11-15T16:20:43.976Z,90.41
2022-11-15T16:25:53.955Z,90.37
2022-11-15T16:31:07.261Z,90.43
2022-11-15T16:36:28.645Z,90.40
2022-11-15T16:41:36.356Z,89.81
2022-11-15T16:46:48.066Z,89.84
2022-11-15T16:51:54.544Z,90.00
2022-11-15T16:57:01.321Z,90.08
2022-11-15T17:02:14.235Z,90.81
2022-11-15T17:07:21.655Z,90.91
2022-11-15T17:12:29.709Z,90.86
2022-11-15T17:17:40.295Z,90.70
2022-11-15T17:22:47.645Z,90.71
2022-11-15T17:27:55.593Z,90.69
2022-11-15T17:33:04.219Z,91.00
2022-11-15T17:38:11.277Z,90.95
2022-11-15T17:43:18.083Z,90.49
2022-11-15T17:48:27.364Z,90.44
2022-11-15T17:53:37.139Z,90.56
2022-11-15T17:58:44.577Z,90.67
2022-11-15T18:03:53.742Z,90.88
2022-11-15T18:09:00.616Z,90.22
2022-11-15T18:14:17.144Z,90.45
2022-11-15T18:19:26.138Z,90.77
2022-11-15T18:24:34.380Z,90.33
2022-11-15T18:29:41.383Z,90.29
2022-11-15T18:34:49.416Z,90.21
2022-11-15T18:39:56.277Z,90.42
2022-11-15T18:45:03.808Z,90.36
2022-11-15T18:50:14.547Z,90.63
2022-11-15T18:55:21.784Z,90.04
2022-11-15T19:00:30.036Z,90.07
2022-11-15T19:05:38.932Z,90.14
2022-11-15T19:10:45.845Z,90.30
2022-11-15T19:16:00.843Z,90.79
2022-11-15T19:21:14.883Z,90.44
2022-11-15T19:26:25.464Z,90.44
2022-11-15T19:31:33.496Z,90.70
2022-11-15T19:36:43.968Z,90.14
2022-11-15T19:41:51.761Z,89.97
2022-11-15T19:46:59.973Z,90.07
2022-11-15T19:52:08.989Z,90.04
2022-11-15T19:57:15.606Z,90.11
2022-11-15T20:02:22.672Z,90.37
2022-11-15T20:07:31.780Z,90.16
2022-11-15T20:12:42.577Z,90.46
2022-11-15T20:17:49.560Z,90.27
2022-11-15T20:23:01.124Z,90.31
2022-11-15T20:28:19.712Z,90.50
2022-11-15T20:33:27.552Z,90.44
2022-11-15T20:38:36.449Z,90.39
2022-11-15T20:43:43.987Z,90.34
2022-11-15T20:48:51.055Z,90.37
2022-11-15T20:54:00.333Z,90.52
2022-11-15T20:59:07.739Z,90.51
2022-11-15T21:04:14.643Z,90.43
2022-11-15T21:09:40.074Z,91.03
2022-11-15T21:14:49.191Z,90.98
2022-11-15T21:19:56.594Z,90.61
2022-11-15T21:25:04.114Z,90.63
2022-11-15T21:30:12.444Z,90.59
2022-11-15T21:35:18.756Z,90.70
2022-11-15T21:40:26.794Z,90.72
2022-11-15T21:45:33.290Z,90.78
2022-11-15T21:50:39.844Z,90.69
2022-11-15T21:55:47.620Z,90.68
2022-11-15T22:01:13.563Z,90.65
2022-11-15T22:06:20.146Z,91.12
2022-11-15T22:11:27.851Z,91.28
2022-11-15T22:16:34.547Z,90.92
2022-11-15T22:21:41.209Z,91.05
2022-11-15T22:26:48.953Z,91.17
2022-11-15T22:31:55.116Z,91.30
2022-11-15T22:42:29.528Z,91.39
2022-11-15T22:47:35.752Z,91.49
2022-11-15T22:52:42.255Z,91.41
2022-11-15T22:57:49.980Z,91.39
2022-11-15T23:02:56.048Z,91.23
2022-11-15T23:08:02.163Z,91.54
2022-11-15T23:13:17.796Z,91.65
2022-11-15T23:18:23.826Z,91.39
2022-11-15T23:23:30.015Z,91.56
2022-11-15T23:28:37.994Z,91.36
2022-11-15T23:33:59.218Z,91.57
2022-11-15T23:39:05.790Z,91.35
2022-11-15T23:44:13.659Z,91.46
2022-11-15T23:49:20.289Z,91.27
2022-11-15T23:54:27.064Z,91.17
2022-11-15T23:59:35.865Z,91.00
